Time;durP1;ratioP1;P1;durP2;ratioP2;P2;SDS_P1;SDS_P2;PMS_P1;PMS_P2;Temp;Humidity;BMP_temperature;BMP_pressure;BME280_temperature;BME280_humidity;BME280_pressure;Samples;Min_cycle;Max_cycle;Signal;HPM_P1;HPM_P2
2024/01/23 00:01:14;;;;;;;15.50;2.63;;;;;;;8.90;80.89;100837.72;4952388;28;98907;-75
2024/01/23 00:03:40;;;;;;;15.73;2.25;;;;;;;8.99;80.26;100833.06;4944066;28;97680;-75
2024/01/23 00:06:07;;;;;;;18.70;2.78;;;;;;;8.77;80.48;100838.06;4949037;28;98009;-75
2024/01/23 00:08:33;;;;;;;13.30;2.15;;;;;;;8.62;82.23;100840.22;4945973;28;98851;-75
2024/01/23 00:10:59;;;;;;;14.05;2.75;;;;;;;8.91;80.74;100835.06;4951868;28;99057;-73
2024/01/23 00:13:26;;;;;;;12.75;1.83;;;;;;;8.93;80.12;100845.53;4948703;28;97626;-73
2024/01/23 00:15:52;;;;;;;16.63;2.10;;;;;;;8.82;80.34;100837.94;4951280;28;97002;-73
2024/01/23 00:18:20;;;;;;;10.13;2.70;;;;;;;8.61;81.44;100843.75;4949387;28;99047;-73
2024/01/23 00:20:46;;;;;;;11.32;1.63;;;;;;;8.40;81.85;100846.03;4948353;28;99125;-73
2024/01/23 00:23:13;;;;;;;16.38;3.13;;;;;;;8.21;83.69;100839.47;4949571;28;98569;-73
2024/01/23 00:25:39;;;;;;;9.02;1.80;;;;;;;8.55;81.95;100836.03;4950768;28;96812;-73
2024/01/23 00:28:06;;;;;;;13.07;2.22;;;;;;;8.66;80.84;100845.38;4952012;28;98755;-73
2024/01/23 00:30:32;;;;;;;10.82;1.77;;;;;;;8.62;81.35;100859.53;4948039;28;99268;-73
2024/01/23 00:32:59;;;;;;;9.43;1.63;;;;;;;9.08;79.52;100861.81;4947127;28;98360;-73
2024/01/23 00:35:27;;;;;;;11.48;1.50;;;;;;;8.82;79.58;100845.84;4946712;28;97159;-73
2024/01/23 00:37:53;;;;;;;8.75;1.75;;;;;;;8.66;81.00;100868.25;4946898;28;99294;-74
2024/01/23 00:40:20;;;;;;;8.65;1.90;;;;;;;8.70;81.72;100883.91;4950398;28;99377;-73
2024/01/23 00:42:46;;;;;;;15.07;1.50;;;;;;;8.54;83.64;100879.91;4953093;28;97630;-74
2024/01/23 00:45:12;;;;;;;9.70;1.50;;;;;;;8.47;84.24;100872.25;4947603;28;96988;-74
2024/01/23 00:47:39;;;;;;;13.25;1.70;;;;;;;8.78;82.92;100875.81;4951512;28;100629;-74
2024/01/23 00:50:06;;;;;;;6.90;1.52;;;;;;;9.38;80.13;100893.53;4948663;28;98311;-76
2024/01/23 00:52:34;;;;;;;8.68;1.25;;;;;;;9.40;79.74;100900.47;4946337;28;97050;-74
2024/01/23 00:55:03;;;;;;;11.52;1.65;;;;;;;9.29;80.82;100888.50;4949210;28;96955;-75
2024/01/23 00:57:29;;;;;;;7.47;1.60;;;;;;;9.09;81.59;100892.53;4953092;28;103716;-75
2024/01/23 00:59:56;;;;;;;11.85;1.80;;;;;;;9.02;83.15;100895.38;4949115;28;99485;-75
2024/01/23 01:02:22;;;;;;;8.85;1.88;;;;;;;8.79;84.24;100886.28;4950877;28;96835;-75
2024/01/23 01:04:49;;;;;;;8.77;1.50;;;;;;;8.46;86.60;100905.59;4949922;28;96831;-75
2024/01/23 01:07:15;;;;;;;8.55;1.60;;;;;;;8.53;86.95;100908.97;4952551;28;98993;-75
2024/01/23 01:09:43;;;;;;;9.43;1.75;;;;;;;8.79;86.81;100899.47;4951785;28;98790;-75
2024/01/23 01:12:09;;;;;;;7.03;1.50;;;;;;;8.35;89.28;100894.44;4947599;28;97477;-75
2024/01/23 01:14:37;;;;;;;7.78;1.45;;;;;;;8.32;90.96;100891.91;4950571;28;97027;-75
2024/01/23 01:17:04;;;;;;;9.10;1.55;;;;;;;8.24;89.88;100883.28;4949145;28;99274;-76
2024/01/23 01:19:30;;;;;;;7.50;1.38;;;;;;;8.23;90.35;100886.81;4947180;28;99091;-75
2024/01/23 01:21:56;;;;;;;9.27;1.70;;;;;;;8.25;90.58;100892.91;4951700;28;96817;-75
2024/01/23 01:24:23;;;;;;;6.43;1.23;;;;;;;8.60;89.29;100898.22;4949576;28;98454;-75
2024/01/23 01:26:50;;;;;;;10.27;2.25;;;;;;;8.53;89.17;100891.41;4944587;28;98862;-74
2024/01/23 01:29:17;;;;;;;4.88;1.13;;;;;;;8.25;90.84;100900.81;4946329;28;98999;-74
2024/01/23 01:31:43;;;;;;;12.07;1.90;;;;;;;8.39;90.66;100904.88;4953163;28;96881;-74
2024/01/23 01:34:09;;;;;;;7.15;1.50;;;;;;;8.71;88.88;100906.72;4948962;28;97464;-75
2024/01/23 01:36:36;;;;;;;7.55;1.20;;;;;;;8.93;87.22;100900.88;4950867;28;99092;-74
2024/01/23 01:39:03;;;;;;;7.63;1.30;;;;;;;9.10;86.05;100904.81;4951817;28;101764;-74
2024/01/23 01:41:29;;;;;;;7.70;1.60;;;;;;;8.67;87.58;100904.19;4955721;28;96774;-76
2024/01/23 01:43:57;;;;;;;5.88;1.23;;;;;;;8.52;88.39;100894.06;4950886;28;97492;-76
2024/01/23 01:46:26;;;;;;;8.48;1.70;;;;;;;8.36;89.12;100897.06;4956104;28;97000;-76
2024/01/23 01:48:53;;;;;;;7.78;1.38;;;;;;;8.59;88.15;100903.53;4948445;28;98774;-76
2024/01/23 01:51:21;;;;;;;7.15;1.00;;;;;;;8.49;88.31;100909.91;4947223;28;98406;-75
2024/01/23 01:53:48;;;;;;;8.00;1.50;;;;;;;8.44;88.19;100906.53;4950142;28;97945;-76
2024/01/23 01:56:15;;;;;;;7.00;1.85;;;;;;;8.46;88.41;100904.75;4944635;28;98851;-75
2024/01/23 01:58:42;;;;;;;6.18;1.20;;;;;;;8.28;89.75;100908.63;4948101;28;99181;-76
2024/01/23 02:01:11;;;;;;;9.55;1.52;;;;;;;8.53;87.88;100912.47;4944404;28;99294;-75
2024/01/23 02:03:37;;;;;;;7.55;1.05;;;;;;;8.58;88.17;100915.84;4945408;28;97578;-75
2024/01/23 02:06:05;;;;;;;8.68;1.50;;;;;;;8.70;86.81;100914.66;4949120;28;99312;-74
2024/01/23 02:08:32;;;;;;;5.53;1.23;;;;;;;8.27;88.68;100915.66;4947697;28;98769;-75
2024/01/23 02:10:58;;;;;;;6.00;1.13;;;;;;;8.39;88.34;100918.06;4946008;28;99665;-75
2024/01/23 02:13:26;;;;;;;7.75;2.05;;;;;;;8.21;89.77;100914.94;4947861;28;97300;-75
2024/01/23 02:15:52;;;;;;;5.90;1.20;;;;;;;8.30;88.58;100920.00;4947386;28;98921;-73
2024/01/23 02:18:19;;;;;;;10.15;1.20;;;;;;;8.37;88.97;100911.09;4947684;28;98741;-73
2024/01/23 02:20:46;;;;;;;7.28;1.38;;;;;;;8.61;87.02;100899.94;4948276;28;97417;-73
2024/01/23 02:23:13;;;;;;;9.68;1.50;;;;;;;8.91;84.95;100893.03;4949077;28;96810;-73
2024/01/23 02:25:42;;;;;;;9.38;1.45;;;;;;;8.57;86.33;100900.06;4948270;28;99189;-73
2024/01/23 02:28:09;;;;;;;9.13;1.83;;;;;;;8.55;86.48;100905.38;4946255;28;98776;-73
2024/01/23 02:30:36;;;;;;;11.40;2.00;;;;;;;8.52;86.40;100907.22;4948188;28;97224;-73
2024/01/23 02:33:03;;;;;;;11.13;1.58;;;;;;;9.00;83.98;100908.59;4944881;28;97246;-72
2024/01/23 02:35:29;;;;;;;7.53;1.35;;;;;;;8.85;84.02;100902.88;4951901;28;101630;-73
2024/01/23 02:37:56;;;;;;;6.47;1.27;;;;;;;8.84;84.17;100901.13;4950268;28;97699;-73
2024/01/23 02:40:22;;;;;;;6.30;1.52;;;;;;;8.77;84.35;100913.59;4951439;28;97092;-73
2024/01/23 02:42:50;;;;;;;9.82;1.40;;;;;;;8.78;84.79;100913.56;4951081;28;96825;-73
2024/01/23 02:45:16;;;;;;;11.88;1.35;;;;;;;8.31;86.75;100916.50;4949257;28;98664;-72
2024/01/23 02:47:43;;;;;;;9.13;1.10;;;;;;;8.15;87.63;100921.22;4949122;28;99039;-72
2024/01/23 02:50:10;;;;;;;8.95;1.40;;;;;;;7.96;89.21;100914.63;4945800;28;96931;-72
2024/01/23 02:52:36;;;;;;;8.60;1.83;;;;;;;7.77;90.12;100901.00;4946926;28;97002;-73
2024/01/23 02:55:03;;;;;;;9.57;1.38;;;;;;;7.87;89.79;100913.09;4942761;28;101239;-73
2024/01/23 02:57:30;;;;;;;6.03;1.30;;;;;;;7.94;89.43;100917.28;4954222;28;101868;-72
2024/01/23 02:59:57;;;;;;;8.48;1.58;;;;;;;8.01;89.15;100918.00;4952696;28;96832;-72
2024/01/23 03:02:23;;;;;;;9.30;1.52;;;;;;;7.77;88.97;100923.81;4947460;28;99646;-73
2024/01/23 03:04:51;;;;;;;7.53;1.25;;;;;;;8.07;88.67;100923.16;4953935;28;99169;-72
2024/01/23 03:07:18;;;;;;;9.48;1.38;;;;;;;8.31;87.80;100917.38;4944315;28;99573;-72
2024/01/23 03:09:44;;;;;;;7.65;1.17;;;;;;;8.52;85.84;100930.94;4948308;28;97126;-73
2024/01/23 03:12:18;;;;;;;9.00;1.33;;;;;;;8.29;86.73;100929.66;4945152;28;97360;-72
2024/01/23 03:14:44;;;;;;;5.15;0.90;;;;;;;7.81;88.15;100921.06;4945577;28;99113;-73
2024/01/23 03:17:13;;;;;;;4.45;1.20;;;;;;;8.00;88.50;100930.34;4950270;28;98793;-74
2024/01/23 03:19:39;;;;;;;5.28;1.20;;;;;;;8.15;87.88;100934.38;4943937;28;97158;-74
2024/01/23 03:22:06;;;;;;;8.82;1.70;;;;;;;8.41;86.45;100939.06;4954084;28;97231;-74
2024/01/23 03:24:33;;;;;;;7.88;1.17;;;;;;;8.23;86.63;100935.06;4949961;28;100268;-70
2024/01/23 03:27:00;;;;;;;5.15;1.15;;;;;;;8.15;87.00;100934.38;4952833;28;98901;-69
2024/01/23 03:29:27;;;;;;;11.88;1.75;;;;;;;8.21;87.40;100936.84;4946689;28;97867;-69
2024/01/23 03:31:54;;;;;;;8.20;1.50;;;;;;;8.14;86.75;100935.25;4948476;28;98120;-69
2024/01/23 03:34:21;;;;;;;8.40;1.05;;;;;;;7.86;87.76;100960.47;4947957;28;98939;-70
2024/01/23 03:36:48;;;;;;;12.68;1.33;;;;;;;7.76;89.22;100958.91;4951693;28;99134;-70
2024/01/23 03:39:14;;;;;;;2.90;0.90;;;;;;;7.53;90.34;100965.50;4944905;28;97456;-70
2024/01/23 03:41:40;;;;;;;10.85;1.75;;;;;;;7.63;90.37;100960.06;4946920;28;97493;-69
2024/01/23 03:44:07;;;;;;;5.15;1.13;;;;;;;7.83;89.50;100968.41;4945419;28;98893;-69
2024/01/23 03:46:35;;;;;;;5.20;1.00;;;;;;;7.49;90.56;100963.81;4945321;28;99112;-69
2024/01/23 03:49:01;;;;;;;8.43;1.27;;;;;;;7.43;90.76;100966.56;4946958;28;97214;-69
2024/01/23 03:51:28;;;;;;;6.80;1.30;;;;;;;7.43;90.88;100971.81;4949428;28;97321;-70
2024/01/23 03:53:54;;;;;;;6.47;1.17;;;;;;;7.44;90.80;100976.19;4952456;28;98923;-69
2024/01/23 03:56:22;;;;;;;11.18;1.83;;;;;;;7.76;89.22;100966.78;4952240;28;98925;-69
2024/01/23 03:58:49;;;;;;;5.53;1.10;;;;;;;7.83;88.74;100978.94;4952993;28;96782;-70
2024/01/23 04:01:15;;;;;;;6.03;1.10;;;;;;;7.75;88.65;100967.69;4951926;28;96919;-70
2024/01/23 04:03:41;;;;;;;5.80;1.10;;;;;;;7.71;89.36;100971.28;4946039;28;99538;-70
2024/01/23 04:06:08;;;;;;;6.95;1.23;;;;;;;7.50;90.26;100972.56;4955315;28;98141;-70
2024/01/23 04:08:36;;;;;;;11.32;1.35;;;;;;;7.81;89.18;100980.75;4953523;28;97695;-69
2024/01/23 04:11:02;;;;;;;7.82;1.58;;;;;;;7.75;89.12;100992.22;4952778;28;96959;-70
2024/01/23 04:13:28;;;;;;;10.55;1.10;;;;;;;7.58;89.86;100973.31;4951716;28;99413;-70
2024/01/23 04:15:55;;;;;;;4.32;1.02;;;;;;;7.61;89.79;100983.78;4952615;28;100349;-70
2024/01/23 04:18:22;;;;;;;7.72;1.08;;;;;;;7.82;89.01;100985.09;4958174;28;96703;-70
2024/01/23 04:20:49;;;;;;;11.57;2.05;;;;;;;7.81;89.24;100988.63;4951795;28;96873;-70
2024/01/23 04:23:15;;;;;;;6.60;1.02;;;;;;;7.74;88.60;101005.44;4955668;28;99159;-70
2024/01/23 04:25:43;;;;;;;9.38;1.20;;;;;;;7.46;90.48;101005.97;4950256;28;98712;-70
2024/01/23 04:28:09;;;;;;;8.55;1.17;;;;;;;7.75;89.49;101012.41;4949036;28;97646;-70
2024/01/23 04:30:35;;;;;;;5.07;1.08;;;;;;;7.14;91.29;101021.44;4947863;28;97503;-70
2024/01/23 04:33:02;;;;;;;6.38;1.10;;;;;;;7.26;92.67;101037.00;4952057;28;98880;-70
2024/01/23 04:35:28;;;;;;;6.55;1.25;;;;;;;7.82;90.67;101032.44;4952511;28;99358;-70
2024/01/23 04:37:54;;;;;;;6.28;1.00;;;;;;;7.44;93.09;101043.69;4954149;28;97641;-70
2024/01/23 04:40:24;;;;;;;11.68;1.42;;;;;;;7.60;93.06;101050.41;4954528;28;98080;-70
2024/01/23 04:42:52;;;;;;;6.22;1.00;;;;;;;7.57;91.87;101034.69;4944125;28;99158;-69
2024/01/23 04:45:18;;;;;;;7.75;1.30;;;;;;;7.79;91.22;101043.91;4952487;28;99337;-70
2024/01/23 04:47:44;;;;;;;7.60;0.90;;;;;;;7.82;89.66;101053.47;4953038;28;96876;-69
2024/01/23 04:50:11;;;;;;;8.43;1.90;;;;;;;7.76;89.93;101059.75;4948742;28;97231;-70
2024/01/23 04:52:37;;;;;;;5.03;0.88;;;;;;;7.42;91.60;101058.59;4948387;28;98765;-69
2024/01/23 04:55:05;;;;;;;4.68;1.00;;;;;;;7.78;90.54;101060.59;4952873;28;99040;-70
2024/01/23 04:57:32;;;;;;;11.85;1.55;;;;;;;7.39;91.25;101063.94;4950187;28;97335;-69
2024/01/23 04:59:59;;;;;;;6.20;1.30;;;;;;;7.56;91.34;101067.13;4949539;28;100826;-70
2024/01/23 05:02:26;;;;;;;9.35;1.10;;;;;;;7.93;89.50;101083.13;4951003;28;97471;-70
2024/01/23 05:04:53;;;;;;;10.52;1.08;;;;;;;7.87;89.06;101099.03;4948143;28;98827;-71
2024/01/23 05:07:19;;;;;;;8.45;1.30;;;;;;;7.94;88.93;101084.84;4948846;28;97304;-70
2024/01/23 05:09:46;;;;;;;5.47;1.10;;;;;;;7.51;90.09;101098.78;4952257;28;98426;-69
2024/01/23 05:12:12;;;;;;;7.68;0.93;;;;;;;7.02;93.42;101100.47;4948104;28;99094;-69
2024/01/23 05:14:38;;;;;;;7.90;1.33;;;;;;;7.22;93.41;101102.78;4945884;28;98892;-69
2024/01/23 05:17:06;;;;;;;10.73;1.15;;;;;;;7.48;91.82;101104.06;4952475;28;96790;-70
2024/01/23 05:19:32;;;;;;;9.10;1.27;;;;;;;7.47;92.40;101110.25;4947043;28;96887;-70
2024/01/23 05:21:59;;;;;;;10.85;2.00;;;;;;;7.69;91.39;101121.25;4947747;28;99403;-70
2024/01/23 05:24:27;;;;;;;7.32;1.27;;;;;;;7.49;92.03;101133.88;4948149;28;98824;-70
2024/01/23 05:26:53;;;;;;;9.73;2.10;;;;;;;7.94;90.25;101134.84;4953863;28;98426;-70
2024/01/23 05:29:20;;;;;;;6.47;1.20;;;;;;;7.55;90.56;101136.38;4950735;28;98822;-69
2024/01/23 05:31:46;;;;;;;10.88;1.40;;;;;;;7.88;90.46;101133.16;4951509;28;98899;-74
2024/01/23 05:34:14;;;;;;;9.52;1.25;;;;;;;7.38;92.52;101141.06;4947078;28;98102;-75
2024/01/23 05:36:40;;;;;;;9.85;2.35;;;;;;;7.55;91.28;101145.16;4952071;28;97438;-73
2024/01/23 05:39:06;;;;;;;15.75;1.50;;;;;;;7.30;92.40;101158.72;4949030;28;97233;-74
2024/01/23 05:41:33;;;;;;;8.50;1.00;;;;;;;7.30;92.77;101158.72;4948406;28;98880;-74
2024/01/23 05:43:59;;;;;;;10.27;1.45;;;;;;;7.20;92.84;101160.63;4950787;28;99061;-74
2024/01/23 05:46:25;;;;;;;4.20;0.60;;;;;;;7.21;93.35;101167.63;4951890;28;97348;-75
2024/01/23 05:48:52;;;;;;;10.88;1.15;;;;;;;7.18;92.71;101168.53;4948427;28;97260;-74
2024/01/23 05:51:19;;;;;;;26.25;4.03;;;;;;;7.36;91.80;101170.00;4948065;28;98736;-74
2024/01/23 05:53:46;;;;;;;3.40;0.60;;;;;;;6.73;94.30;101172.69;4953896;28;97700;-73
2024/01/23 05:56:12;;;;;;;5.50;1.45;;;;;;;7.09;93.38;101186.19;4950475;28;97153;-73
2024/01/23 05:58:39;;;;;;;8.93;1.15;;;;;;;7.08;93.25;101182.72;4950615;28;97225;-72
2024/01/23 06:01:05;;;;;;;9.48;1.42;;;;;;;6.84;93.47;101185.66;4952704;28;98069;-74
2024/01/23 06:03:31;;;;;;;7.97;1.50;;;;;;;6.93;94.36;101200.44;4947701;28;102410;-74
2024/01/23 06:05:58;;;;;;;8.43;1.13;;;;;;;6.91;93.77;101199.59;4948623;28;97871;-74
2024/01/23 06:08:26;;;;;;;12.65;1.48;;;;;;;7.28;92.11;101206.09;4953236;28;97897;-74
2024/01/23 06:10:52;;;;;;;9.27;2.58;;;;;;;7.18;92.34;101207.09;4953219;28;99019;-73
2024/01/23 06:13:18;;;;;;;5.30;0.93;;;;;;;7.54;90.37;101201.28;4950043;28;99149;-74
2024/01/23 06:15:45;;;;;;;12.27;1.90;;;;;;;7.80;88.30;101218.41;4945395;28;96858;-73
2024/01/23 06:18:11;;;;;;;6.15;1.17;;;;;;;7.77;88.07;101216.69;4949028;28;97550;-73
2024/01/23 06:20:38;;;;;;;9.77;1.55;;;;;;;7.33;89.89;101214.75;4948783;28;97804;-73
2024/01/23 06:23:04;;;;;;;9.90;1.55;;;;;;;7.58;89.89;101213.50;4948944;28;98793;-73
2024/01/23 06:25:32;;;;;;;8.95;1.50;;;;;;;7.22;91.10;101223.69;4949049;28;97228;-73
2024/01/23 06:27:58;;;;;;;14.52;1.85;;;;;;;6.95;93.02;101230.19;4951130;28;97096;-73
2024/01/23 06:30:25;;;;;;;11.70;1.30;;;;;;;7.43;91.66;101244.41;4951921;28;100153;-74
2024/01/23 06:32:51;;;;;;;9.23;1.13;;;;;;;7.85;89.03;101238.50;4947716;28;98769;-73
2024/01/23 06:35:18;;;;;;;14.52;1.90;;;;;;;7.48;90.03;101240.81;4948152;28;97476;-73
2024/01/23 06:37:44;;;;;;;11.98;1.27;;;;;;;7.09;92.86;101249.25;4951840;28;97398;-73
2024/01/23 06:40:12;;;;;;;10.30;1.60;;;;;;;7.16;93.12;101248.28;4948770;28;98866;-73
2024/01/23 06:42:39;;;;;;;10.02;1.50;;;;;;;7.21;91.91;101249.13;4949722;28;99981;-74
2024/01/23 06:45:07;;;;;;;9.43;1.42;;;;;;;7.58;90.91;101259.97;4944508;28;97414;-76
2024/01/23 06:47:33;;;;;;;21.50;2.55;;;;;;;7.61;90.32;101260.78;4950840;28;97110;-73
2024/01/23 06:49:59;;;;;;;17.48;1.85;;;;;;;7.23;91.45;101260.44;4947312;28;98895;-74
2024/01/23 06:52:25;;;;;;;17.52;2.17;;;;;;;7.35;91.90;101262.91;4944932;28;101317;-73
2024/01/23 06:54:52;;;;;;;13.65;2.00;;;;;;;7.54;90.30;101276.69;4950484;28;96730;-74
2024/01/23 06:57:18;;;;;;;11.23;1.60;;;;;;;7.56;89.84;101267.88;4951213;28;98352;-73
2024/01/23 06:59:46;;;;;;;10.00;2.00;;;;;;;7.45;89.47;101279.44;4955849;28;99360;-73
2024/01/23 07:02:12;;;;;;;11.10;1.25;;;;;;;7.57;89.07;101288.03;4949386;28;98804;-73
2024/01/23 07:04:40;;;;;;;12.63;2.17;;;;;;;7.64;88.29;101296.69;4951069;28;97674;-73
2024/01/23 07:07:06;;;;;;;13.30;2.13;;;;;;;7.58;88.20;101305.53;4947658;28;98787;-73
2024/01/23 07:09:33;;;;;;;16.35;2.08;;;;;;;7.63;88.52;101308.09;4948939;28;98974;-73
2024/01/23 07:11:59;;;;;;;11.48;2.05;;;;;;;7.75;87.24;101314.94;4948795;28;98814;-73
2024/01/23 07:14:25;;;;;;;12.18;1.63;;;;;;;8.07;85.77;101315.34;4955737;28;97625;-73
2024/01/23 07:16:53;;;;;;;17.50;1.80;;;;;;;8.19;84.83;101306.34;4942269;28;97387;-73
2024/01/23 07:19:19;;;;;;;21.05;2.55;;;;;;;8.11;84.06;101324.91;4945292;28;99246;-73
2024/01/23 07:21:45;;;;;;;16.38;1.75;;;;;;;7.81;86.20;101322.75;4942701;28;99024;-74
2024/01/23 07:24:12;;;;;;;10.65;1.75;;;;;;;8.37;83.84;101322.75;4950132;28;97228;-74
2024/01/23 07:26:38;;;;;;;15.32;1.90;;;;;;;8.47;82.48;101328.69;4941697;28;98194;-73
2024/01/23 07:29:05;;;;;;;16.35;2.30;;;;;;;8.25;82.56;101327.31;4948100;28;98926;-73
2024/01/23 07:31:31;;;;;;;15.27;2.47;;;;;;;7.71;85.71;101334.28;4949735;28;100185;-74
2024/01/23 07:33:59;;;;;;;12.00;1.50;;;;;;;8.07;84.94;101336.38;4948785;28;96978;-74
2024/01/23 07:36:26;;;;;;;19.50;2.90;;;;;;;8.24;83.19;101331.72;4950745;28;97254;-73
2024/01/23 07:38:53;;;;;;;18.17;2.17;;;;;;;8.07;83.47;101336.38;4950315;28;99166;-74
2024/01/23 07:41:19;;;;;;;14.82;2.28;;;;;;;8.47;82.48;101322.59;4948157;28;98806;-74
2024/01/23 07:43:45;;;;;;;11.80;2.03;;;;;;;8.21;82.07;101320.34;4947087;28;97275;-75
2024/01/23 07:46:12;;;;;;;12.13;2.30;;;;;;;8.08;83.55;101330.19;4950848;28;97323;-75
2024/01/23 07:48:38;;;;;;;19.73;3.05;;;;;;;8.61;80.88;101317.91;4949710;28;100015;-75
2024/01/23 07:51:06;;;;;;;13.63;1.88;;;;;;;8.27;81.17;101336.91;4934008;28;98900;-75
2024/01/23 07:53:33;;;;;;;18.80;3.78;;;;;;;8.16;82.61;101341.50;4936714;28;98540;-75
2024/01/23 07:56:00;;;;;;;12.70;1.88;;;;;;;8.37;81.39;101340.31;4937464;28;100205;-74
2024/01/23 07:58:26;;;;;;;12.38;1.77;;;;;;;8.34;81.50;101333.31;4938321;28;98948;-73
2024/01/23 08:00:53;;;;;;;12.65;2.15;;;;;;;8.50;80.79;101343.59;4943241;28;98816;-75
2024/01/23 08:03:19;;;;;;;18.23;2.22;;;;;;;8.18;81.90;101342.34;4947901;28;99395;-74
2024/01/23 08:05:45;;;;;;;8.45;2.33;;;;;;;8.04;82.05;101346.94;4949003;28;97885;-73
2024/01/23 08:08:12;;;;;;;;;;;;;;;8.30;82.55;101346.53;4945878;28;99225;-73
2024/01/23 08:10:38;;;;;;;20.90;1.95;;;;;;;8.18;82.49;101338.84;4954755;28;98933;-74
2024/01/23 08:13:05;;;;;;;10.55;1.52;;;;;;;8.22;81.90;101349.28;4953807;28;96831;-73
2024/01/23 08:15:31;;;;;;;17.83;1.85;;;;;;;8.28;81.91;101337.78;4947481;28;97640;-74
2024/01/23 08:17:57;;;;;;;19.10;2.28;;;;;;;8.39;80.97;101338.53;4944521;28;99092;-74
2024/01/23 08:20:24;;;;;;;18.75;2.70;;;;;;;8.71;79.93;101337.94;4937226;28;99363;-75
2024/01/23 08:22:51;;;;;;;19.85;2.85;;;;;;;8.53;80.28;101359.34;4945983;28;97389;-75
2024/01/23 08:25:18;;;;;;;23.80;2.47;;;;;;;8.46;81.31;101365.63;4945922;28;98723;-75
2024/01/23 08:27:45;;;;;;;22.40;3.15;;;;;;;8.89;78.52;101348.13;4945165;28;99685;-74
2024/01/23 08:30:12;;;;;;;32.35;4.25;;;;;;;8.99;78.00;101369.94;4947174;28;99267;-75
2024/01/23 08:32:39;;;;;;;17.52;2.50;;;;;;;8.67;79.74;101370.50;4944331;28;96832;-74
2024/01/23 08:35:06;;;;;;;13.68;1.65;;;;;;;8.28;80.34;101386.03;4940249;28;97557;-74
2024/01/23 08:37:32;;;;;;;21.50;2.35;;;;;;;8.33;80.87;101396.56;4946715;28;98918;-74
2024/01/23 08:39:58;;;;;;;14.68;2.40;;;;;;;8.27;82.09;101383.47;4950723;28;98980;-75
2024/01/23 08:42:27;;;;;;;24.58;2.40;;;;;;;8.50;81.14;101380.47;4950576;28;97334;-75
2024/01/23 08:44:55;;;;;;;18.30;2.08;;;;;;;8.60;79.95;101387.34;4950682;28;97624;-74
2024/01/23 08:47:21;;;;;;;12.23;1.95;;;;;;;8.65;79.24;101385.47;4949796;28;99347;-75
2024/01/23 08:49:47;;;;;;;19.25;3.15;;;;;;;8.19;80.74;101390.59;4944480;28;99509;-75
2024/01/23 08:52:14;;;;;;;17.48;2.70;;;;;;;8.06;82.33;101396.94;4947970;28;97811;-75
2024/01/23 08:54:40;;;;;;;17.25;2.95;;;;;;;8.38;80.99;101414.03;4954024;28;96972;-74
2024/01/23 08:57:08;;;;;;;22.17;3.40;;;;;;;8.00;82.02;101411.06;4949174;28;98611;-75
2024/01/23 08:59:38;;;;;;;24.25;2.75;;;;;;;8.15;81.34;101404.69;4949539;28;99232;-74
2024/01/23 09:02:05;;;;;;;19.85;3.08;;;;;;;8.30;81.28;101410.63;4951127;28;96970;-75
2024/01/23 09:04:31;;;;;;;10.65;1.50;;;;;;;8.17;81.26;101411.69;4944586;28;97803;-74
2024/01/23 09:06:58;;;;;;;12.23;2.35;;;;;;;8.20;81.27;101419.53;4947388;28;99273;-75
2024/01/23 09:09:24;;;;;;;15.07;2.47;;;;;;;8.54;80.73;101419.88;4950407;28;98958;-75
2024/01/23 09:11:51;;;;;;;19.50;2.65;;;;;;;8.73;78.79;101425.72;4945173;28;97389;-76
2024/01/23 09:14:17;;;;;;;16.80;2.50;;;;;;;8.75;78.54;101430.06;4950712;28;96845;-75
2024/01/23 09:16:45;;;;;;;103.45;5.78;;;;;;;8.54;78.86;101445.34;4949057;28;99107;-74
2024/01/23 09:19:11;;;;;;;24.10;2.63;;;;;;;8.50;79.45;101438.41;4946293;28;99304;-74
2024/01/23 09:21:37;;;;;;;30.77;2.25;;;;;;;8.71;78.25;101444.22;4944878;28;97121;-75
2024/01/23 09:24:04;;;;;;;64.20;3.95;;;;;;;8.88;78.22;101450.94;4940996;28;98838;-75
2024/01/23 09:26:31;;;;;;;80.65;5.55;;;;;;;8.96;77.66;101447.28;4948821;28;101315;-75
2024/01/23 09:28:57;;;;;;;85.97;6.07;;;;;;;9.18;76.38;101458.31;4949259;28;97730;-75
2024/01/23 09:31:24;;;;;;;50.78;3.70;;;;;;;9.27;76.07;101481.88;4948197;28;97228;-76
2024/01/23 09:33:52;;;;;;;267.65;12.07;;;;;;;9.62;74.47;101473.28;4948377;28;98230;-74
2024/01/23 09:36:19;;;;;;;35.92;3.38;;;;;;;8.98;76.38;101461.31;4949525;28;99103;-74
2024/01/23 09:38:46;;;;;;;25.13;2.60;;;;;;;8.97;77.05;101478.03;4945616;28;99040;-75
2024/01/23 09:41:13;;;;;;;82.47;4.97;;;;;;;8.88;76.88;101483.44;4947235;28;98306;-75
2024/01/23 09:43:42;;;;;;;125.57;8.55;;;;;;;9.17;76.57;101482.94;4947455;28;98464;-76
2024/01/23 09:46:12;;;;;;;42.08;4.22;;;;;;;8.78;78.31;101489.78;4950387;28;100458;-76
2024/01/23 09:48:39;;;;;;;414.23;23.95;;;;;;;9.55;75.91;101479.56;4947451;28;101413;-75
2024/01/23 09:51:15;;;;;;;78.50;4.28;;;;;;;9.57;74.43;101490.97;4944195;28;97501;-75
2024/01/23 09:53:42;;;;;;;260.38;12.85;;;;;;;10.03;73.16;101484.75;4945896;28;97314;-74
2024/01/23 09:56:08;;;;;;;104.82;6.68;;;;;;;9.54;74.30;101485.75;4941329;28;99081;-74
2024/01/23 09:58:36;;;;;;;17.52;2.20;;;;;;;8.92;76.97;101498.31;4944264;28;98884;-74
2024/01/23 10:01:02;;;;;;;21.42;2.35;;;;;;;9.45;75.21;101501.78;4942167;28;97199;-74
2024/01/23 10:03:32;;;;;;;42.15;3.65;;;;;;;9.21;75.90;101487.25;4944862;28;96988;-75
2024/01/23 10:05:58;;;;;;;31.85;3.55;;;;;;;9.02;76.75;101505.16;4945634;28;101464;-75
2024/01/23 10:08:26;;;;;;;83.10;5.95;;;;;;;9.34;75.67;101490.53;4942388;28;98985;-75
2024/01/23 10:10:57;;;;;;;192.40;12.13;;;;;;;9.40;75.84;101503.59;4944463;28;97157;-75
2024/01/23 10:13:24;;;;;;;51.70;4.95;;;;;;;9.47;74.47;101507.88;4945202;28;97334;-74
2024/01/23 10:15:52;;;;;;;36.83;3.20;;;;;;;9.20;75.59;101501.31;4947009;28;99384;-75
2024/01/23 10:18:18;;;;;;;36.15;4.15;;;;;;;9.22;75.40;101496.03;4945098;28;98852;-75
2024/01/23 10:20:46;;;;;;;35.85;4.30;;;;;;;9.04;77.39;101510.44;4947319;28;97869;-75
2024/01/23 10:23:14;;;;;;;30.65;3.42;;;;;;;9.43;75.25;101509.72;4949106;28;97450;-75
2024/01/23 10:25:41;;;;;;;18.38;2.63;;;;;;;9.63;74.99;101501.41;4948335;28;99017;-75
2024/01/23 10:28:08;;;;;;;65.93;4.22;;;;;;;9.68;74.86;101515.38;4948297;28;98758;-75
2024/01/23 10:30:36;;;;;;;88.18;4.63;;;;;;;9.86;73.38;101512.38;4942888;28;97542;-74
2024/01/23 10:33:03;;;;;;;137.07;9.07;;;;;;;9.32;76.50;101526.63;4945906;28;97687;-76
2024/01/23 10:35:33;;;;;;;20.83;3.17;;;;;;;9.85;73.36;101507.09;4938812;28;100913;-75
2024/01/23 10:38:00;;;;;;;19.05;2.20;;;;;;;9.77;74.00;101516.97;4938225;28;98461;-76
2024/01/23 10:40:27;;;;;;;47.85;3.67;;;;;;;9.75;74.38;101529.31;4936557;28;97947;-75
2024/01/23 10:42:56;;;;;;;51.20;5.13;;;;;;;10.20;72.88;101535.47;4946189;28;97816;-75
2024/01/23 10:45:23;;;;;;;32.42;4.47;;;;;;;10.50;71.01;101540.06;4942530;28;99132;-75
2024/01/23 10:47:51;;;;;;;33.38;3.92;;;;;;;10.67;70.36;101542.34;4941303;28;99206;-71
2024/01/23 10:50:19;;;;;;;56.17;4.72;;;;;;;10.06;72.40;101546.28;4944393;28;97790;-71
2024/01/23 10:52:48;;;;;;;107.93;7.82;;;;;;;10.47;71.24;101534.88;4946565;28;97781;-70
2024/01/23 10:55:16;;;;;;;89.80;6.28;;;;;;;10.23;71.89;101545.97;4945331;28;99383;-70
2024/01/23 10:57:46;;;;;;;23.33;3.35;;;;;;;9.85;73.59;101544.94;4945948;28;98874;-70
2024/01/23 11:00:17;;;;;;;15.50;2.20;;;;;;;9.90;74.54;101558.06;4940461;28;98006;-71
2024/01/23 11:02:48;;;;;;;36.38;4.32;;;;;;;10.36;72.70;101553.59;4945191;28;97823;-70
2024/01/23 11:05:15;;;;;;;37.85;4.97;;;;;;;9.78;74.27;101561.78;4947655;28;99189;-71
2024/01/23 11:07:46;;;;;;;47.22;5.22;;;;;;;10.11;73.81;101556.78;4946145;28;98902;-71
2024/01/23 11:10:27;;;;;;;109.10;6.75;;;;;;;9.46;76.03;101558.88;4949142;28;96956;-71
2024/01/23 11:13:06;;;;;;;32.38;3.10;;;;;;;10.16;74.18;101568.97;4945761;28;98566;-72
2024/01/23 11:15:34;;;;;;;42.75;5.72;;;;;;;9.92;74.63;101577.38;4947886;28;99349;-72
2024/01/23 11:18:22;;;;;;;67.72;6.00;;;;;;;10.03;74.79;101566.63;4948805;28;98852;-72
2024/01/23 11:21:10;;;;;;;33.70;2.63;;;;;;;10.51;73.94;101583.22;4944297;28;98964;-72
2024/01/23 11:23:38;;;;;;;175.57;12.40;;;;;;;10.72;71.84;101575.69;4948945;28;97552;-72
2024/01/23 11:26:12;;;;;;;113.82;8.55;;;;;;;10.93;72.11;101581.38;4949428;28;99346;-71